Time;durP1;ratioP1;P1;durP2;ratioP2;P2;SDS_P1;SDS_P2;PMS_P1;PMS_P2;Temp;Humidity;BMP_temperature;BMP_pressure;BME280_temperature;BME280_humidity;BME280_pressure;Samples;Min_cycle;Max_cycle;Signal;HPM_P1;HPM_P2
2021/06/29 00:29:41;;;;;;;4.35;3.60;;;;;;;23.13;49.60;94855.00;2989896;39;20066;-71
2021/06/29 00:31:43;;;;;;;4.18;3.20;;;;;;;23.23;49.45;94851.72;2992435;39;20061;-81
2021/06/29 00:33:45;;;;;;;5.50;3.92;;;;;;;23.20;48.92;94849.53;2993330;39;20058;-80
2021/06/29 00:35:46;;;;;;;5.13;3.58;;;;;;;23.10;49.45;94850.09;2993817;39;20099;-82
2021/06/29 00:37:48;;;;;;;4.90;3.58;;;;;;;22.97;50.09;94852.97;2991374;39;20055;-81
2021/06/29 00:39:50;;;;;;;4.97;4.07;;;;;;;22.66;51.03;94854.94;2990600;39;20047;-81
2021/06/29 00:41:52;;;;;;;5.90;4.15;;;;;;;22.22;53.22;94862.34;2988565;39;20442;-80
2021/06/29 00:43:54;;;;;;;8.63;4.45;;;;;;;21.88;54.98;94862.81;2991128;39;20492;-80
2021/06/29 00:45:55;;;;;;;6.85;3.95;;;;;;;21.95;54.57;94865.41;2999964;39;20062;-81
2021/06/29 00:47:57;;;;;;;4.85;4.00;;;;;;;22.14;53.54;94860.03;2993397;39;20194;-81
2021/06/29 00:49:59;;;;;;;5.57;3.95;;;;;;;22.38;53.25;94863.59;2993687;39;20166;-80
2021/06/29 00:52:01;;;;;;;6.43;4.00;;;;;;;22.55;52.50;94853.09;2994277;39;20077;-80
2021/06/29 00:54:03;;;;;;;7.53;4.28;;;;;;;22.66;52.41;94853.09;2983793;39;20084;-80
2021/06/29 00:56:19;;;;;;;5.43;3.85;;;;;;;22.62;52.54;94861.78;2993661;39;21269;-80
2021/06/29 00:58:21;;;;;;;6.93;4.50;;;;;;;22.61;52.60;94854.84;2994862;39;20043;-80
2021/06/29 01:00:23;;;;;;;5.93;4.32;;;;;;;22.66;52.59;94850.41;2990836;39;20376;-80
2021/06/29 01:02:24;;;;;;;4.88;4.00;;;;;;;22.74;52.16;94851.13;2991276;39;20152;-80
2021/06/29 01:04:26;;;;;;;6.68;4.50;;;;;;;22.86;52.43;94855.41;2992497;39;20114;-81
2021/06/29 01:06:28;;;;;;;5.13;4.05;;;;;;;22.92;52.23;94844.88;2983585;39;20117;-80
2021/06/29 01:08:30;;;;;;;5.35;4.20;;;;;;;22.99;52.42;94854.38;2993616;39;20096;-80
2021/06/29 01:10:33;;;;;;;4.95;4.03;;;;;;;23.02;52.53;94861.16;2981461;39;20044;-79
2021/06/29 01:12:36;;;;;;;7.95;4.80;;;;;;;23.03;52.11;94858.25;2983711;39;20044;-81
2021/06/29 01:14:38;;;;;;;5.18;4.25;;;;;;;22.84;52.85;94862.88;2996005;39;20103;-80
2021/06/29 01:16:40;;;;;;;6.70;4.38;;;;;;;22.67;53.18;94857.41;2986374;39;20487;-78
2021/06/29 01:18:44;;;;;;;6.35;3.78;;;;;;;22.63;52.93;94860.75;2985940;39;20074;-80
2021/06/29 01:20:45;;;;;;;;;;;;;;;22.65;53.32;94861.31;2981977;39;20104;-81
2021/06/29 01:22:50;;;;;;;5.53;4.13;;;;;;;22.65;53.08;94854.13;2990700;39;19984;-78
2021/06/29 01:24:55;;;;;;;8.15;4.00;;;;;;;22.73;52.81;94857.50;2994594;39;20050;-81
2021/06/29 01:27:15;;;;;;;7.30;4.47;;;;;;;22.75;52.76;94850.88;2993101;39;20458;-81
2021/06/29 01:29:19;;;;;;;7.18;4.63;;;;;;;22.76;53.10;94849.03;2982846;39;20055;-80
2021/06/29 01:31:46;;;;;;;6.43;4.22;;;;;;;22.73;52.85;94847.63;2989754;39;20432;-81
2021/06/29 01:33:48;;;;;;;6.18;4.03;;;;;;;22.78;52.88;94846.94;2989302;39;20062;-81
2021/06/29 01:35:51;;;;;;;6.50;3.92;;;;;;;22.78;52.94;94847.78;2981432;39;20159;-80
2021/06/29 01:37:53;;;;;;;7.20;4.22;;;;;;;22.80;52.73;94850.19;2981032;39;20059;-80
2021/06/29 01:40:03;;;;;;;6.53;4.10;;;;;;;22.78;53.06;94842.44;2993218;39;20496;-80
2021/06/29 01:42:25;;;;;;;4.95;3.80;;;;;;;22.79;52.99;94844.03;2984144;39;20055;-82
2021/06/29 01:44:36;;;;;;;5.35;3.80;;;;;;;22.78;53.36;94841.59;2977015;39;20056;-81
2021/06/29 01:46:40;;;;;;;5.32;3.88;;;;;;;22.83;53.21;94845.22;2984205;39;20059;-72
2021/06/29 01:48:46;;;;;;;4.95;4.15;;;;;;;22.87;53.28;94850.91;2985679;39;20374;-81
2021/06/29 01:50:49;;;;;;;9.55;4.00;;;;;;;22.92;53.00;94852.88;2988405;39;20059;-81
2021/06/29 01:52:57;;;;;;;5.67;4.33;;;;;;;22.85;53.25;94853.81;2983108;39;20399;-79
2021/06/29 01:54:59;;;;;;;5.93;4.47;;;;;;;22.73;53.74;94847.63;2992510;39;20143;-81
2021/06/29 01:57:02;;;;;;;5.53;3.95;;;;;;;22.64;53.89;94857.03;2983036;39;20228;-80
2021/06/29 01:59:15;;;;;;;4.97;3.97;;;;;;;22.58;53.73;94858.75;2975123;39;20063;-80
2021/06/29 02:01:18;;;;;;;6.05;4.57;;;;;;;22.56;54.11;94854.69;2982038;39;20282;-80
2021/06/29 02:03:20;;;;;;;6.82;4.50;;;;;;;22.57;54.15;94843.00;2982066;39;20052;-81
2021/06/29 02:05:23;;;;;;;6.50;4.13;;;;;;;22.53;54.08;94852.50;2991196;39;20368;-81
2021/06/29 02:07:24;;;;;;;5.68;3.85;;;;;;;22.54;54.34;94846.09;2989578;39;20047;-72
2021/06/29 02:09:26;;;;;;;7.35;4.60;;;;;;;22.56;54.35;94849.34;2990588;39;20084;-72
2021/06/29 02:11:28;;;;;;;5.95;4.22;;;;;;;22.49;54.14;94857.47;2983298;39;20054;-71
2021/06/29 02:13:29;;;;;;;5.93;4.25;;;;;;;22.47;54.46;94855.03;2992270;39;20057;-72
2021/06/29 02:15:31;;;;;;;6.32;4.30;;;;;;;22.46;54.32;94856.09;2991266;39;20291;-72
2021/06/29 02:17:33;;;;;;;6.20;4.50;;;;;;;22.47;54.46;94852.34;2982717;39;20324;-71
2021/06/29 02:19:35;;;;;;;7.65;4.07;;;;;;;22.49;53.96;94850.28;2974196;39;20058;-72
2021/06/29 02:21:37;;;;;;;5.15;4.05;;;;;;;22.52;54.19;94858.88;2982761;39;20059;-72
2021/06/29 02:23:38;;;;;;;8.35;4.28;;;;;;;22.49;54.06;94855.59;2978572;39;20081;-72
2021/06/29 02:25:40;;;;;;;6.05;4.50;;;;;;;22.48;53.80;94859.34;2989616;39;20307;-72
2021/06/29 02:27:42;;;;;;;6.15;4.90;;;;;;;22.41;54.00;94853.28;2976799;39;20044;-72
2021/06/29 02:29:44;;;;;;;8.27;4.40;;;;;;;22.41;53.69;94855.97;2990496;39;20098;-72
2021/06/29 02:31:45;;;;;;;6.82;4.65;;;;;;;22.32;53.92;94857.31;2981775;39;20980;-73
2021/06/29 02:33:47;;;;;;;6.45;4.05;;;;;;;22.28;54.11;94853.47;2986426;39;20055;-71
2021/06/29 02:35:49;;;;;;;8.68;4.72;;;;;;;22.24;54.26;94852.28;2991861;39;20118;-72
2021/06/29 02:37:51;;;;;;;7.75;4.75;;;;;;;22.19;54.27;94855.63;2992401;39;20261;-71
2021/06/29 02:39:52;;;;;;;12.70;4.70;;;;;;;22.13;54.73;94858.38;2982099;39;20119;-71
2021/06/29 02:41:54;;;;;;;7.60;5.10;;;;;;;22.05;54.71;94857.69;2991461;39;20050;-72
2021/06/29 02:43:56;;;;;;;6.38;4.60;;;;;;;21.99;54.88;94849.78;2990090;39;20070;-72
2021/06/29 02:45:58;;;;;;;8.25;4.80;;;;;;;21.92;55.13;94857.88;2979135;39;20059;-71
2021/06/29 02:48:01;;;;;;;6.55;4.38;;;;;;;21.91;55.21;94855.41;2991131;39;20062;-71
2021/06/29 02:50:07;;;;;;;7.03;4.60;;;;;;;21.94;55.04;94858.44;2992068;39;20466;-71
2021/06/29 02:52:09;;;;;;;7.57;4.38;;;;;;;22.02;54.65;94855.44;2974187;39;20060;-72
2021/06/29 02:54:11;;;;;;;6.78;4.60;;;;;;;22.06;54.20;94855.81;2992114;39;20066;-73
2021/06/29 02:58:33;;;;;;;7.13;4.45;;;;;;;22.19;54.11;94860.16;2986051;39;20408;-71
2021/06/29 03:00:36;;;;;;;8.52;4.50;;;;;;;22.06;54.10;94864.63;2989756;39;20051;-72
2021/06/29 03:02:37;;;;;;;6.78;4.55;;;;;;;21.76;55.36;94861.13;2987348;39;20120;-71
2021/06/29 03:04:39;;;;;;;9.05;5.50;;;;;;;21.33;57.35;94859.38;2991358;39;20070;-72
2021/06/29 03:06:41;;;;;;;8.90;4.93;;;;;;;21.41;56.79;94869.72;2991517;39;20143;-71
2021/06/29 03:08:43;;;;;;;7.53;5.40;;;;;;;21.54;56.48;94866.94;2974216;39;20144;-73
2021/06/29 03:10:44;;;;;;;9.07;5.60;;;;;;;21.72;55.99;94862.63;2981470;39;20055;-73
2021/06/29 03:12:46;;;;;;;5.53;4.90;;;;;;;21.85;55.45;94862.44;2991676;39;20475;-72
2021/06/29 03:14:56;;;;;;;6.03;4.88;;;;;;;21.95;55.06;94862.72;2982150;39;20079;-72
2021/06/29 03:16:57;;;;;;;6.57;5.25;;;;;;;22.07;54.75;94862.78;2986547;39;20127;-72
2021/06/29 03:18:59;;;;;;;8.40;5.20;;;;;;;22.20;54.61;94867.94;2993058;39;20051;-72
2021/06/29 03:21:01;;;;;;;7.30;4.82;;;;;;;22.28;54.17;94867.66;2993381;39;20099;-71
2021/06/29 03:23:03;;;;;;;6.70;4.38;;;;;;;22.27;53.81;94865.19;2992804;39;20467;-71
2021/06/29 03:25:05;;;;;;;6.18;4.70;;;;;;;22.29;53.62;94866.59;2983666;39;20052;-72
2021/06/29 03:27:08;;;;;;;5.80;4.22;;;;;;;22.15;54.04;94865.13;2977457;39;20154;-72
2021/06/29 03:29:09;;;;;;;9.15;5.55;;;;;;;21.99;54.44;94860.44;2970340;39;20445;-73
2021/06/29 03:31:11;;;;;;;7.28;5.03;;;;;;;21.85;54.70;94865.13;2989832;39;20063;-72
2021/06/29 03:33:13;;;;;;;9.23;5.25;;;;;;;21.79;55.18;94860.69;2983072;39;20447;-72
2021/06/29 03:35:15;;;;;;;7.90;4.65;;;;;;;21.86;55.13;94858.75;2993038;39;20493;-72
2021/06/29 03:37:16;;;;;;;7.35;4.82;;;;;;;21.99;54.86;94866.56;2983207;39;20080;-72
2021/06/29 03:39:18;;;;;;;10.60;5.63;;;;;;;22.08;54.74;94867.88;2993095;39;20063;-71
2021/06/29 03:41:25;;;;;;;6.38;4.32;;;;;;;22.20;54.58;94875.09;2983203;39;20055;-73
2021/06/29 03:43:26;;;;;;;9.13;4.70;;;;;;;22.27;54.41;94868.69;2992858;39;20654;-71
2021/06/29 03:45:28;;;;;;;8.15;5.53;;;;;;;22.34;54.98;94867.78;2992090;39;20135;-72
2021/06/29 03:47:30;;;;;;;9.25;5.25;;;;;;;22.38;54.89;94876.94;2992842;39;20129;-73
2021/06/29 03:49:32;;;;;;;7.32;5.15;;;;;;;22.41;54.55;94876.47;2981402;39;20124;-73
2021/06/29 03:51:34;;;;;;;7.35;5.15;;;;;;;22.42;54.36;94878.94;2993095;39;20055;-72
2021/06/29 03:53:36;;;;;;;5.43;4.70;;;;;;;22.53;54.00;94876.53;2993563;39;20597;-71
2021/06/29 03:55:37;;;;;;;8.50;5.63;;;;;;;22.59;53.98;94883.63;2993268;39;20445;-82
2021/06/29 03:57:39;;;;;;;9.38;5.25;;;;;;;22.64;53.93;94881.06;2983902;39;20051;-80
2021/06/29 03:59:41;;;;;;;9.60;5.55;;;;;;;22.72;53.19;94882.59;2988621;39;20325;-72
2021/06/29 04:01:43;;;;;;;6.53;5.15;;;;;;;22.74;53.17;94884.00;2982006;39;20071;-73
2021/06/29 04:03:45;;;;;;;7.00;5.70;;;;;;;22.54;54.08;94886.16;2978316;39;20366;-72
2021/06/29 04:05:47;;;;;;;9.45;5.70;;;;;;;22.53;54.01;94887.19;2977076;39;20086;-74
2021/06/29 04:07:48;;;;;;;9.68;5.55;;;;;;;22.61;53.71;94884.22;2983096;39;20048;-72
2021/06/29 04:09:50;;;;;;;8.13;4.90;;;;;;;22.74;53.36;94885.84;2989349;39;20127;-71
2021/06/29 04:11:52;;;;;;;8.48;6.03;;;;;;;22.82;53.43;94888.16;2983065;39;20385;-73
2021/06/29 04:13:54;;;;;;;8.68;6.05;;;;;;;22.93;53.07;94894.56;2992643;39;20393;-71
2021/06/29 04:15:56;;;;;;;10.23;5.90;;;;;;;22.95;52.84;94884.47;2974102;39;20060;-71
2021/06/29 04:17:58;;;;;;;7.40;5.40;;;;;;;23.02;52.91;94890.56;2983014;39;20087;-74
2021/06/29 04:20:00;;;;;;;10.35;5.80;;;;;;;22.98;52.90;94879.47;2992358;39;20143;-72
2021/06/29 04:22:01;;;;;;;8.45;5.65;;;;;;;23.06;52.54;94881.84;2986619;39;20054;-72
2021/06/29 04:24:07;;;;;;;6.97;5.50;;;;;;;23.12;52.45;94877.41;2992952;39;20059;-81
2021/06/29 04:26:09;;;;;;;9.77;5.93;;;;;;;23.13;52.15;94880.91;2984995;39;20059;-80
2021/06/29 04:28:10;;;;;;;8.10;5.40;;;;;;;23.13;52.26;94876.38;2984970;39;20055;-82
2021/06/29 04:30:13;;;;;;;9.27;6.05;;;;;;;23.25;52.14;94873.69;2992429;39;20058;-83
2021/06/29 04:32:15;;;;;;;8.43;5.60;;;;;;;23.28;52.09;94865.22;2986160;39;20056;-81
2021/06/29 04:34:17;;;;;;;7.90;5.38;;;;;;;23.24;52.56;94872.88;2980373;39;20317;-80
2021/06/29 04:36:18;;;;;;;8.45;5.40;;;;;;;;;;2994918;39;20115;-79
2021/06/29 04:38:20;;;;;;;10.60;6.15;;;;;;;23.46;51.66;94875.75;2989489;39;20051;-80
2021/06/29 04:40:22;;;;;;;6.82;5.80;;;;;;;23.51;51.43;94870.53;2993766;39;20055;-79
2021/06/29 04:42:24;;;;;;;8.57;6.13;;;;;;;23.63;51.34;94873.16;2991935;39;20051;-82
2021/06/29 04:44:26;;;;;;;12.13;6.63;;;;;;;23.58;51.84;94873.06;2987408;39;20428;-81
2021/06/29 04:46:27;;;;;;;7.22;5.88;;;;;;;23.64;51.94;94877.47;2996564;39;20051;-81
2021/06/29 04:48:30;;;;;;;12.13;7.30;;;;;;;23.49;52.59;94879.84;2996220;39;20380;-82
2021/06/29 04:50:31;;;;;;;8.80;6.57;;;;;;;23.35;52.69;94878.44;2980339;39;20055;-80
2021/06/29 04:52:33;;;;;;;12.05;6.82;;;;;;;23.25;53.00;94874.50;2987501;39;20052;-71
2021/06/29 04:54:35;;;;;;;11.52;7.07;;;;;;;23.14;53.38;94879.84;2990283;39;20416;-73
2021/06/29 04:56:36;;;;;;;14.52;7.28;;;;;;;22.40;55.56;94883.69;2988061;39;20407;-74
2021/06/29 04:58:38;;;;;;;11.77;7.68;;;;;;;22.54;55.96;94888.81;2981061;39;20317;-73
2021/06/29 05:00:45;;;;;;;10.67;6.70;;;;;;;22.75;55.22;94877.59;2984864;39;20051;-72
2021/06/29 05:02:47;;;;;;;11.65;7.57;;;;;;;22.86;54.98;94884.00;2989648;39;20087;-73
2021/06/29 05:04:48;;;;;;;9.02;7.45;;;;;;;22.61;55.70;94885.00;2982586;39;20055;-73
2021/06/29 05:06:50;;;;;;;17.42;8.70;;;;;;;22.37;56.97;94888.66;2983052;39;20401;-74
2021/06/29 05:08:52;;;;;;;10.60;7.32;;;;;;;22.49;56.45;94874.28;2992402;39;20442;-72
2021/06/29 05:10:54;;;;;;;10.43;6.80;;;;;;;22.70;55.95;94880.16;2992532;39;20055;-71
2021/06/29 05:12:55;;;;;;;11.23;7.85;;;;;;;22.84;55.95;94884.25;2992137;39;20049;-73
2021/06/29 05:14:57;;;;;;;11.85;7.45;;;;;;;23.08;55.23;94886.94;2986566;39;20050;-72
2021/06/29 05:16:59;;;;;;;11.25;8.07;;;;;;;23.10;54.71;94888.34;2987098;39;20062;-72
2021/06/29 05:19:01;;;;;;;9.60;6.75;;;;;;;23.26;54.71;94881.47;2993940;39;20094;-72
2021/06/29 05:21:03;;;;;;;11.95;7.40;;;;;;;23.44;54.50;94885.84;2992224;39;20058;-72
2021/06/29 05:23:04;;;;;;;11.18;7.47;;;;;;;23.50;53.39;94876.09;2991767;39;20140;-72
2021/06/29 05:25:08;;;;;;;10.75;7.72;;;;;;;23.56;53.84;94885.84;2985854;39;20075;-72
2021/06/29 05:27:10;;;;;;;13.02;7.47;;;;;;;23.69;53.36;94876.75;2982988;39;20047;-73
2021/06/29 05:29:12;;;;;;;9.88;7.50;;;;;;;23.82;52.92;94881.06;2979554;39;20075;-71
2021/06/29 05:31:13;;;;;;;10.98;7.93;;;;;;;23.96;52.29;94881.59;2991482;39;20235;-73
2021/06/29 05:33:18;;;;;;;10.77;7.72;;;;;;;24.04;52.71;94884.69;2986116;39;20592;-73
2021/06/29 05:35:19;;;;;;;10.38;8.00;;;;;;;24.11;51.95;94882.72;2982679;39;20096;-73
2021/06/29 05:37:21;;;;;;;10.85;7.45;;;;;;;24.18;52.28;94881.72;2986155;39;20143;-72
2021/06/29 05:39:23;;;;;;;11.60;7.95;;;;;;;24.25;51.84;94879.72;2985048;39;20104;-82
2021/06/29 05:41:24;;;;;;;15.05;7.78;;;;;;;24.34;51.61;94889.00;2983823;39;20051;-83
2021/06/29 05:43:26;;;;;;;8.35;7.20;;;;;;;24.25;52.08;94882.41;2986089;39;20056;-83
2021/06/29 05:45:28;;;;;;;10.27;7.65;;;;;;;23.44;53.95;94883.19;2976058;39;20678;-82
2021/06/29 05:47:33;;;;;;;15.18;8.30;;;;;;;23.28;54.49;94874.03;2992369;39;20055;-81
2021/06/29 05:49:36;;;;;;;14.63;8.90;;;;;;;23.23;54.87;94887.28;2992858;39;20118;-81
2021/06/29 05:51:38;;;;;;;11.67;9.20;;;;;;;23.54;54.18;94881.78;2990920;39;20047;-82
2021/06/29 05:53:40;;;;;;;10.30;8.23;;;;;;;23.79;54.00;94874.31;2977064;39;20310;-85
2021/06/29 05:55:42;;;;;;;12.60;7.57;;;;;;;24.02;52.93;94878.75;2991432;39;20090;-84
2021/06/29 05:57:48;;;;;;;12.52;7.38;;;;;;;24.20;53.00;94877.78;2978533;39;20076;-84
2021/06/29 05:59:50;;;;;;;9.82;7.03;;;;;;;24.41;52.21;94884.28;2986164;39;20087;-80
2021/06/29 06:01:53;;;;;;;12.70;6.75;;;;;;;24.50;51.98;94890.09;2985720;39;20139;-81
2021/06/29 06:03:54;;;;;;;11.52;8.45;;;;;;;24.66;51.83;94872.44;2989638;39;20055;-82
2021/06/29 06:05:57;;;;;;;10.63;7.13;;;;;;;24.78;51.32;94880.38;2987790;39;20147;-82
2021/06/29 06:07:59;;;;;;;9.20;6.50;;;;;;;24.91;50.87;94880.88;2993197;39;20357;-84
2021/06/29 06:10:01;;;;;;;16.75;8.10;;;;;;;24.87;50.74;94881.63;2982077;39;20501;-86
2021/06/29 06:12:04;;;;;;;10.13;6.97;;;;;;;24.93;50.75;94877.97;2988936;39;20059;-79
2021/06/29 06:14:06;;;;;;;12.82;7.43;;;;;;;25.06;50.43;94885.66;2992554;39;20206;-82
2021/06/29 06:16:08;;;;;;;10.02;7.10;;;;;;;25.16;50.64;94879.63;2982604;39;20048;-81
2021/06/29 06:18:25;;;;;;;9.98;7.70;;;;;;;25.16;50.29;94879.63;2969661;39;20039;-81
2021/06/29 06:20:27;;;;;;;10.23;7.53;;;;;;;25.21;50.32;94878.94;2992871;39;20058;-85
2021/06/29 06:22:28;;;;;;;12.40;8.20;;;;;;;25.11;50.50;94879.56;2992848;39;20464;-79
2021/06/29 06:24:30;;;;;;;12.45;7.63;;;;;;;24.98;50.99;94880.72;2983995;39;20166;-81
2021/06/29 06:26:32;;;;;;;13.43;8.25;;;;;;;24.98;50.66;94879.91;2993238;39;20142;-82
2021/06/29 06:28:34;;;;;;;11.30;7.03;;;;;;;25.07;51.29;94878.44;2992070;39;20118;-81
2021/06/29 06:30:39;;;;;;;14.75;8.77;;;;;;;25.14;51.26;94879.91;2990796;39;20055;-86
2021/06/29 06:32:41;;;;;;;14.68;9.02;;;;;;;25.13;51.00;94878.25;2988259;39;20071;-82
2021/06/29 06:34:43;;;;;;;11.18;7.22;;;;;;;25.24;50.82;94878.44;2984258;39;20150;-81
2021/06/29 06:36:46;;;;;;;10.32;7.97;;;;;;;25.36;50.38;94873.81;2992173;39;20107;-81
2021/06/29 06:38:48;;;;;;;11.05;7.88;;;;;;;25.50;49.93;94872.38;2986567;39;20104;-83
2021/06/29 06:40:50;;;;;;;12.57;8.73;;;;;;;25.61;49.65;94884.03;2992432;39;20055;-83
2021/06/29 06:42:52;;;;;;;10.52;8.48;;;;;;;25.57;49.72;94871.38;2982591;39;20100;-82
2021/06/29 06:44:53;;;;;;;10.15;7.47;;;;;;;25.33;50.49;94875.09;2992766;39;20087;-82
2021/06/29 06:46:55;;;;;;;11.13;8.30;;;;;;;24.64;52.24;94877.22;2991695;39;20055;-82
2021/06/29 06:48:57;;;;;;;13.07;8.05;;;;;;;24.77;52.21;94871.53;2978110;39;20314;-81
2021/06/29 06:51:03;;;;;;;12.98;8.13;;;;;;;25.03;51.95;94872.75;2992164;39;20105;-80
2021/06/29 06:53:05;;;;;;;10.45;8.18;;;;;;;25.15;51.04;94875.34;2982168;39;20481;-83
2021/06/29 06:55:07;;;;;;;13.65;8.05;;;;;;;25.32;50.52;94876.16;2982795;39;20050;-81
2021/06/29 06:57:10;;;;;;;9.05;7.65;;;;;;;25.40;50.19;94872.22;2982912;39;20044;-80
2021/06/29 06:59:11;;;;;;;14.05;8.32;;;;;;;25.49;49.84;94872.59;2977753;39;20129;-84
2021/06/29 07:01:14;;;;;;;11.30;7.65;;;;;;;25.54;49.21;94872.69;2990516;39;20146;-83
2021/06/29 07:03:17;;;;;;;10.30;7.88;;;;;;;25.75;48.91;94866.53;2982343;39;20099;-82
2021/06/29 07:05:18;;;;;;;10.80;7.43;;;;;;;25.96;48.33;94866.78;2992680;39;20420;-81
2021/06/29 07:07:20;;;;;;;10.65;7.78;;;;;;;26.14;47.90;94860.28;2983152;39;20131;-84
2021/06/29 07:09:22;;;;;;;11.68;7.60;;;;;;;26.29;47.74;94868.47;2984318;39;20055;-82
2021/06/29 07:11:24;;;;;;;14.80;8.10;;;;;;;26.46;47.53;94873.75;2991979;39;20049;-74
2021/06/29 07:13:26;;;;;;;12.95;7.60;;;;;;;26.44;48.43;94875.88;2990735;39;20083;-71
2021/06/29 07:15:29;;;;;;;11.77;8.05;;;;;;;26.54;48.06;94865.25;2986814;39;20054;-75
2021/06/29 07:17:33;;;;;;;11.80;7.95;;;;;;;26.62;47.52;94860.50;2991779;39;20058;-74
2021/06/29 07:19:35;;;;;;;13.85;8.50;;;;;;;26.53;47.56;94860.13;2982111;39;20200;-73
2021/06/29 07:21:37;;;;;;;8.90;7.63;;;;;;;26.68;47.33;94859.47;2991774;39;20070;-72
2021/06/29 07:23:39;;;;;;;15.80;8.50;;;;;;;26.73;47.69;94854.94;2991847;39;20051;-73
2021/06/29 07:25:41;;;;;;;13.13;8.07;;;;;;;26.87;47.52;94852.63;2991338;39;20055;-74
2021/06/29 07:27:43;;;;;;;12.75;9.20;;;;;;;26.81;47.85;94856.34;2988300;39;20147;-73
2021/06/29 07:29:45;;;;;;;16.67;10.38;;;;;;;26.67;47.62;94861.34;2990261;39;20099;-73
2021/06/29 07:31:47;;;;;;;11.95;8.80;;;;;;;26.48;48.17;94854.69;2990600;39;20062;-73
2021/06/29 07:33:49;;;;;;;11.73;8.48;;;;;;;26.60;48.17;94865.31;2991540;39;20058;-73
2021/06/29 07:35:51;;;;;;;14.45;7.20;;;;;;;26.82;46.92;94851.78;2971601;39;20112;-75
2021/06/29 07:37:53;;;;;;;12.63;8.30;;;;;;;26.99;46.73;94859.69;2989192;39;20055;-71
2021/06/29 07:39:55;;;;;;;11.82;8.95;;;;;;;27.02;46.60;94853.78;2991434;39;20440;-73
2021/06/29 07:41:56;;;;;;;15.38;9.82;;;;;;;26.81;45.86;94848.28;2980977;39;20100;-72
2021/06/29 07:43:58;;;;;;;11.88;9.02;;;;;;;26.80;47.14;94849.34;2982238;39;20051;-74
2021/06/29 07:46:01;;;;;;;14.30;9.50;;;;;;;26.90;46.94;94841.34;2984186;39;20067;-72
2021/06/29 07:48:03;;;;;;;16.35;10.18;;;;;;;26.95;46.88;94851.31;2985126;39;20067;-73
2021/06/29 07:50:07;;;;;;;12.10;9.15;;;;;;;26.71;47.58;94843.63;2981887;39;20085;-74
2021/06/29 07:52:08;;;;;;;14.60;9.18;;;;;;;26.73;48.25;94846.88;2992639;39;20087;-73
2021/06/29 07:54:10;;;;;;;15.88;9.10;;;;;;;26.64;48.44;94842.22;2980611;39;20083;-72
2021/06/29 07:56:15;;;;;;;11.82;9.07;;;;;;;26.78;48.09;94835.38;2991114;39;20131;-76
2021/06/29 07:58:17;;;;;;;12.48;8.82;;;;;;;27.08;47.36;94831.25;2984135;39;20094;-72
2021/06/29 08:00:20;;;;;;;11.25;8.60;;;;;;;27.26;46.88;94830.06;2986001;39;20089;-73
2021/06/29 08:02:24;;;;;;;12.20;8.18;;;;;;;27.36;46.12;94833.63;2979024;39;20290;-74
2021/06/29 08:04:26;;;;;;;15.95;8.77;;;;;;;27.58;45.93;94835.34;2990988;39;20158;-72
2021/06/29 08:06:28;;;;;;;12.60;8.57;;;;;;;27.68;45.08;94837.25;2993571;39;20301;-74
2021/06/29 08:08:30;;;;;;;11.32;7.97;;;;;;;27.66;44.21;94837.53;2987667;39;20066;-75
2021/06/29 08:10:32;;;;;;;10.55;7.55;;;;;;;27.38;44.59;94830.66;2994106;39;20094;-81
2021/06/29 08:12:34;;;;;;;10.93;7.90;;;;;;;27.08;44.31;94834.78;2994269;39;20035;-82
2021/06/29 08:14:36;;;;;;;15.07;8.67;;;;;;;26.94;45.57;94841.66;2989006;39;20065;-83
2021/06/29 08:16:38;;;;;;;10.98;7.55;;;;;;;27.05;45.29;94834.47;2993654;39;20057;-83
2021/06/29 08:18:40;;;;;;;9.15;6.97;;;;;;;27.03;44.86;94825.84;2987126;39;20059;-80
2021/06/29 08:20:43;;;;;;;12.15;8.10;;;;;;;27.08;45.12;94828.56;2990429;39;20127;-81
2021/06/29 08:22:46;;;;;;;13.65;8.48;;;;;;;27.18;45.80;94823.25;2995476;39;20314;-80
2021/06/29 08:24:49;;;;;;;12.57;8.35;;;;;;;27.17;46.31;94825.13;2994913;39;20059;-82
2021/06/29 08:26:51;;;;;;;12.85;8.90;;;;;;;27.28;45.97;94828.72;2985055;39;20112;-80
2021/06/29 08:28:53;;;;;;;12.52;8.98;;;;;;;27.35;46.12;94823.91;2986076;39;20059;-85
2021/06/29 08:30:54;;;;;;;11.52;8.25;;;;;;;27.49;44.76;94818.06;2979582;39;20056;-83
2021/06/29 08:32:56;;;;;;;13.60;9.15;;;;;;;27.64;45.00;94830.78;2982268;39;20055;-83
2021/06/29 08:34:58;;;;;;;14.63;8.30;;;;;;;27.92;45.62;94818.78;2984430;39;20439;-82
2021/06/29 08:37:00;;;;;;;12.38;9.02;;;;;;;28.10;44.09;94823.69;2994166;39;20051;-83
2021/06/29 08:39:04;;;;;;;13.57;7.88;;;;;;;27.83;44.79;94820.34;2988084;39;20075;-82
2021/06/29 08:41:06;;;;;;;11.07;7.63;;;;;;;27.63;44.34;94821.91;2985827;39;20087;-82
2021/06/29 08:43:10;;;;;;;11.63;7.30;;;;;;;27.27;44.54;94819.03;2976400;39;20425;-84
2021/06/29 08:45:14;;;;;;;9.15;7.25;;;;;;;27.43;44.18;94814.56;2983785;39;20482;-83
2021/06/29 08:47:16;;;;;;;10.70;7.15;;;;;;;27.50;44.16;94811.63;2993484;39;20134;-80
2021/06/29 08:49:17;;;;;;;9.57;7.18;;;;;;;27.69;43.72;94810.06;2983362;39;20079;-82
2021/06/29 08:51:21;;;;;;;12.07;7.93;;;;;;;28.02;43.06;94808.03;2994451;39;20055;-81
2021/06/29 08:53:23;;;;;;;11.80;7.85;;;;;;;28.14;43.21;94802.44;2992556;39;20139;-83
2021/06/29 08:55:34;;;;;;;10.75;7.15;;;;;;;28.17;43.61;94800.00;2975853;39;20084;-84
2021/06/29 08:57:36;;;;;;;13.88;7.60;;;;;;;28.33;43.32;94802.69;2975731;39;20143;-85
2021/06/29 08:59:40;;;;;;;10.40;7.57;;;;;;;28.62;42.88;94791.44;2983779;39;20063;-81
2021/06/29 09:01:42;;;;;;;10.30;7.50;;;;;;;28.79;42.62;94798.16;2992034;39;20281;-83
2021/06/29 09:03:44;;;;;;;13.82;8.07;;;;;;;28.92;42.21;94796.78;2990644;39;20050;-81
2021/06/29 09:05:47;;;;;;;11.20;6.95;;;;;;;28.96;40.87;94797.06;2994907;39;20146;-83
2021/06/29 09:08:09;;;;;;;;;;;;;;;29.11;40.95;94793.56;2996217;39;20436;-81
2021/06/29 09:10:11;;;;;;;10.13;7.40;;;;;;;29.05;40.86;94789.22;2990043;39;20023;-84
2021/06/29 09:12:13;;;;;;;12.23;7.18;;;;;;;28.93;40.61;94792.22;2985983;39;20059;-83
2021/06/29 09:14:16;;;;;;;10.10;7.38;;;;;;;28.79;39.92;94794.66;2993792;39;20043;-84
2021/06/29 09:16:23;;;;;;;9.18;7.05;;;;;;;28.52;40.67;94793.06;2984909;39;20073;-82
2021/06/29 09:18:27;;;;;;;10.18;6.30;;;;;;;28.49;40.63;94788.19;2985882;39;20335;-81
2021/06/29 09:20:31;;;;;;;14.05;7.18;;;;;;;28.61;40.32;94781.72;2986543;39;20078;-83
2021/06/29 09:22:33;;;;;;;8.95;7.25;;;;;;;28.82;40.74;94777.94;2995959;39;20193;-81
2021/06/29 09:24:34;;;;;;;10.48;7.40;;;;;;;28.88;40.52;94776.84;2986890;39;20151;-82
2021/06/29 09:26:40;;;;;;;11.35;7.43;;;;;;;28.89;40.37;94777.66;2991153;39;20059;-81
2021/06/29 09:28:47;;;;;;;10.85;7.40;;;;;;;29.11;40.12;94769.28;2995064;39;20327;-80
2021/06/29 09:31:02;;;;;;;9.63;7.57;;;;;;;29.05;40.16;94768.47;2973959;39;20072;-82
2021/06/29 09:33:12;;;;;;;10.85;7.05;;;;;;;29.33;40.21;94758.97;2989956;39;20144;-83
2021/06/29 09:35:14;;;;;;;10.07;7.00;;;;;;;29.57;39.71;94766.41;2994745;39;20062;-81
2021/06/29 09:37:26;;;;;;;11.57;7.47;;;;;;;29.70;39.59;94765.03;2984968;39;20056;-74
2021/06/29 09:39:27;;;;;;;16.00;7.50;;;;;;;29.84;39.29;94760.66;2992630;39;20349;-75
2021/06/29 09:41:31;;;;;;;14.00;8.25;;;;;;;30.00;39.45;94764.84;2989963;39;20061;-74
2021/06/29 09:43:38;;;;;;;10.18;7.47;;;;;;;30.23;38.94;94772.56;2992732;39;20058;-74
2021/06/29 09:45:45;;;;;;;10.60;8.13;;;;;;;30.31;38.75;94763.88;2981640;39;20066;-73
2021/06/29 09:47:46;;;;;;;9.15;7.40;;;;;;;30.31;38.67;94766.56;2985117;39;20081;-74
2021/06/29 09:49:48;;;;;;;10.15;8.18;;;;;;;30.31;38.59;94767.41;2980239;39;20378;-73
2021/06/29 09:51:52;;;;;;;14.85;7.50;;;;;;;30.34;38.25;94766.81;2988649;39;20082;-72
2021/06/29 09:54:00;;;;;;;14.95;9.02;;;;;;;30.12;38.86;94761.81;2992380;39;20062;-73
2021/06/29 09:56:04;;;;;;;11.27;7.32;;;;;;;29.99;38.96;94757.06;2975787;39;20116;-73
2021/06/29 09:58:10;;;;;;;17.17;8.27;;;;;;;29.83;39.03;94761.72;2982059;39;20072;-76
2021/06/29 10:00:12;;;;;;;12.35;7.40;;;;;;;29.66;39.21;94751.25;2990372;39;20350;-73
2021/06/29 10:02:14;;;;;;;16.37;8.50;;;;;;;29.72;40.00;94752.06;2992057;39;20471;-73
2021/06/29 10:04:16;;;;;;;13.82;7.88;;;;;;;29.84;40.83;94749.84;2992033;39;20396;-74
2021/06/29 10:06:26;;;;;;;13.73;8.18;;;;;;;30.09;40.24;94751.56;2982288;39;20434;-74